San Antonio, Texas
Traffic Map
Current Weather Conditions
San Antonio, Texas
Scattered Clouds
Scattered Clouds
34°
Feels Like: 36°
Wind Chill: 34° Ceiling: Unl
Heat Index: 36° Visibility: 10mi
Dew Point: 20° Wind: 10mph
Humidity: 45% Direction: 130° (SE)
Pressure: 29.91in Gusts: 0mph
Raw Report DataKSKF 011758Z 13009KT 10SM SCT046 34/20 A2991 RMK AO2A SLP120 T03370204 10338 20247 58008 $
Traffic Incident Summary
Active as of:
Severity:
Category:
InformationThere was an issue retrieving the traffic information for this location. Please try a different location or try again shortly.
Advertisements
Track Severe Weather on mobile